createdAt,value
2017-06-14T00:02:15.102Z,23.69
2017-06-14T00:04:43.000Z,23.05
2017-06-14T00:07:10.807Z,22.86
2017-06-14T00:09:38.442Z,22.77
2017-06-14T00:12:05.985Z,22.82
2017-06-14T00:14:33.537Z,22.78
2017-06-14T00:17:01.133Z,22.66
2017-06-14T00:19:28.671Z,22.68
2017-06-14T00:21:56.199Z,22.97
2017-06-14T00:24:23.779Z,22.72
2017-06-14T00:26:51.569Z,22.46
2017-06-14T00:29:19.457Z,22.67
2017-06-14T00:31:47.062Z,22.50
2017-06-14T00:34:14.879Z,22.54
2017-06-14T00:36:42.413Z,22.61
2017-06-14T00:39:10.813Z,22.63
2017-06-14T00:41:38.354Z,22.25
2017-06-14T00:44:05.922Z,22.48
2017-06-14T00:46:33.638Z,22.49
2017-06-14T00:49:01.173Z,22.45
2017-06-14T00:51:28.737Z,22.58
2017-06-14T00:53:56.350Z,23.02
2017-06-14T00:56:23.918Z,22.61
2017-06-14T00:58:51.469Z,22.88
2017-06-14T01:01:19.056Z,22.92
2017-06-14T01:03:46.605Z,22.81
2017-06-14T01:06:14.170Z,22.89
2017-06-14T01:08:41.748Z,22.99
2017-06-14T01:11:09.370Z,23.12
2017-06-14T01:13:36.951Z,23.07
2017-06-14T01:16:04.539Z,22.93
2017-06-14T01:18:32.082Z,22.95
2017-06-14T01:20:59.670Z,22.88
2017-06-14T01:23:27.286Z,22.97
2017-06-14T01:25:54.866Z,22.80
2017-06-14T01:28:22.422Z,22.85
2017-06-14T01:30:50.044Z,23.01
2017-06-14T01:33:17.665Z,22.79
2017-06-14T01:35:45.269Z,22.93
2017-06-14T01:38:12.849Z,22.98
2017-06-14T01:40:40.448Z,22.98
2017-06-14T01:43:08.016Z,22.90
2017-06-14T01:45:35.651Z,22.67
2017-06-14T01:48:03.226Z,22.88
2017-06-14T01:50:30.857Z,22.68
2017-06-14T01:52:58.462Z,22.61
2017-06-14T01:55:26.002Z,22.50
2017-06-14T01:57:53.558Z,22.31
2017-06-14T02:00:21.154Z,22.25
2017-06-14T02:02:48.763Z,22.16
2017-06-14T02:05:16.318Z,21.71
2017-06-14T02:07:43.896Z,21.90
2017-06-14T02:10:11.434Z,22.03
2017-06-14T02:12:38.989Z,22.18
2017-06-14T02:15:06.568Z,22.31
2017-06-14T02:17:34.105Z,22.30
2017-06-14T02:20:01.646Z,22.32
2017-06-14T02:22:29.252Z,22.21
2017-06-14T02:24:56.825Z,22.25
2017-06-14T02:27:24.363Z,22.32
2017-06-14T02:29:51.942Z,22.09
2017-06-14T02:32:19.581Z,22.04
2017-06-14T02:34:47.117Z,22.00
2017-06-14T02:37:14.684Z,22.24
2017-06-14T02:39:42.285Z,22.25
2017-06-14T02:42:09.818Z,22.26
2017-06-14T02:44:37.362Z,22.44
2017-06-14T02:47:04.945Z,22.39
2017-06-14T02:49:32.486Z,21.97
2017-06-14T02:52:00.078Z,22.10
2017-06-14T02:54:27.652Z,22.15
2017-06-14T02:56:55.193Z,22.33
2017-06-14T02:59:22.729Z,22.30
2017-06-14T03:01:50.318Z,22.20
2017-06-14T03:04:17.860Z,22.01
2017-06-14T03:06:47.050Z,22.01
2017-06-14T03:09:14.643Z,21.71
2017-06-14T03:11:42.185Z,21.80
2017-06-14T03:14:09.722Z,21.86
2017-06-14T03:16:37.314Z,22.08
2017-06-14T03:19:04.916Z,22.42
2017-06-14T03:21:32.452Z,22.65
2017-06-14T03:24:00.021Z,22.65
2017-06-14T03:26:27.594Z,22.65
2017-06-14T03:28:55.170Z,22.66
2017-06-14T03:31:22.796Z,22.78
2017-06-14T03:33:50.384Z,22.59
2017-06-14T03:36:17.946Z,22.76
2017-06-14T03:38:45.542Z,22.77
2017-06-14T03:41:13.085Z,22.82
2017-06-14T03:43:40.659Z,22.85
2017-06-14T03:46:08.289Z,23.05
2017-06-14T03:48:35.828Z,23.03
2017-06-14T03:51:03.369Z,23.00
2017-06-14T03:53:30.973Z,22.82
2017-06-14T03:55:58.545Z,22.70
2017-06-14T03:58:26.322Z,22.67
2017-06-14T04:00:53.949Z,22.71
2017-06-14T04:03:21.498Z,22.73
2017-06-14T04:05:49.045Z,22.73
2017-06-14T04:08:16.642Z,22.98
2017-06-14T04:10:44.410Z,23.16
2017-06-14T04:13:11.949Z,23.24
2017-06-14T04:15:39.557Z,23.65
2017-06-14T04:18:07.091Z,23.68
2017-06-14T04:20:34.648Z,23.63
2017-06-14T04:23:02.250Z,23.75
2017-06-14T04:25:29.801Z,23.60
2017-06-14T04:27:57.363Z,23.29
2017-06-14T04:30:24.962Z,23.01
2017-06-14T04:32:52.507Z,23.08
2017-06-14T04:35:20.033Z,23.15
2017-06-14T04:37:47.681Z,23.06
2017-06-14T04:40:15.234Z,23.20
2017-06-14T04:42:42.783Z,23.10
2017-06-14T04:45:10.369Z,23.04
2017-06-14T04:47:37.905Z,23.26
2017-06-14T04:50:05.782Z,23.05
2017-06-14T04:52:33.359Z,23.45
2017-06-14T04:55:00.912Z,23.44
2017-06-14T04:57:28.453Z,23.60
2017-06-14T04:59:56.033Z,23.65
2017-06-14T05:02:23.608Z,23.52
2017-06-14T05:04:51.146Z,23.47
2017-06-14T05:07:18.682Z,23.35
2017-06-14T05:09:46.290Z,23.54
2017-06-14T05:12:13.841Z,23.79
2017-06-14T05:14:41.391Z,23.80
2017-06-14T05:17:08.965Z,23.82
2017-06-14T05:19:36.496Z,23.99
2017-06-14T05:22:04.037Z,24.08
2017-06-14T05:24:31.605Z,24.36
2017-06-14T05:26:59.394Z,24.36
2017-06-14T05:29:26.937Z,24.39
2017-06-14T05:31:54.513Z,24.45
2017-06-14T05:34:22.050Z,24.60
2017-06-14T05:36:49.608Z,24.59
2017-06-14T05:39:17.188Z,24.70
2017-06-14T05:41:44.727Z,24.72
2017-06-14T05:44:12.270Z,24.55
2017-06-14T05:46:39.854Z,24.60
2017-06-14T05:49:07.385Z,24.66
2017-06-14T05:51:34.917Z,24.52
2017-06-14T05:54:02.474Z,24.73
2017-06-14T05:56:30.014Z,24.86
2017-06-14T05:58:57.543Z,25.03
2017-06-14T06:01:25.117Z,25.46
2017-06-14T06:03:52.658Z,25.57
2017-06-14T06:06:20.202Z,25.48
2017-06-14T06:08:47.787Z,25.74
2017-06-14T06:11:15.331Z,25.40
2017-06-14T06:13:42.866Z,25.73
2017-06-14T06:16:10.438Z,25.70
2017-06-14T06:18:37.986Z,25.51
2017-06-14T06:21:05.516Z,25.81
2017-06-14T06:23:33.089Z,25.97
2017-06-14T06:26:00.642Z,26.17
2017-06-14T06:28:28.209Z,25.82
2017-06-14T06:30:55.885Z,26.06
2017-06-14T06:33:23.428Z,25.94
2017-06-14T06:35:50.965Z,26.15
2017-06-14T06:38:18.533Z,26.52
2017-06-14T06:40:46.074Z,26.93
2017-06-14T06:43:13.621Z,27.21
2017-06-14T06:45:41.210Z,26.91
2017-06-14T06:48:08.738Z,26.63
2017-06-14T06:50:36.270Z,26.85
2017-06-14T06:53:03.852Z,27.17
2017-06-14T06:55:31.394Z,27.15
2017-06-14T06:57:58.924Z,27.28
2017-06-14T07:00:26.623Z,27.19
2017-06-14T07:02:54.154Z,27.45
2017-06-14T07:05:21.682Z,27.74
2017-06-14T07:07:49.253Z,27.91
2017-06-14T07:10:16.780Z,27.97
2017-06-14T07:12:44.318Z,27.90
2017-06-14T07:15:11.890Z,27.86
2017-06-14T07:17:39.425Z,28.09
2017-06-14T07:20:06.964Z,28.14
2017-06-14T07:22:34.550Z,27.70
2017-06-14T07:25:02.075Z,27.57
2017-06-14T07:27:29.602Z,28.05
2017-06-14T07:29:57.169Z,28.51
2017-06-14T07:32:24.734Z,28.40
2017-06-14T07:34:52.278Z,28.17
2017-06-14T07:37:19.810Z,28.40
2017-06-14T07:39:47.384Z,28.43
2017-06-14T07:42:14.919Z,28.14
2017-06-14T07:44:42.456Z,28.55
2017-06-14T07:47:10.017Z,28.22
2017-06-14T07:49:37.549Z,28.24
2017-06-14T07:52:05.093Z,28.36
2017-06-14T07:54:32.666Z,28.48
2017-06-14T07:57:00.199Z,28.56
2017-06-14T07:59:27.730Z,28.56
2017-06-14T08:01:55.299Z,28.80
2017-06-14T08:04:22.827Z,29.07
2017-06-14T08:06:50.355Z,29.21
2017-06-14T08:09:17.925Z,29.19
2017-06-14T08:11:45.462Z,29.00
2017-06-14T08:14:12.995Z,28.96
2017-06-14T08:16:40.569Z,28.84
2017-06-14T08:19:08.102Z,28.91
2017-06-14T08:21:35.635Z,29.44
2017-06-14T08:24:03.205Z,29.34
2017-06-14T08:26:30.733Z,29.39
2017-06-14T08:28:58.270Z,28.88
2017-06-14T08:31:25.835Z,28.87
2017-06-14T08:33:53.372Z,29.62
2017-06-14T08:36:20.902Z,29.99
2017-06-14T08:38:48.470Z,29.51
2017-06-14T08:41:16.003Z,29.48
2017-06-14T08:43:43.541Z,29.86
2017-06-14T08:46:11.109Z,29.74
2017-06-14T08:48:38.632Z,29.72
2017-06-14T08:51:06.165Z,29.64
2017-06-14T08:53:33.733Z,30.05
2017-06-14T08:56:01.306Z,29.80
2017-06-14T08:58:28.829Z,29.70
2017-06-14T09:00:56.389Z,29.97
2017-06-14T09:03:23.914Z,29.84
2017-06-14T09:05:51.461Z,30.15
2017-06-14T09:08:19.021Z,29.67
2017-06-14T09:10:46.545Z,29.63
2017-06-14T09:13:14.079Z,29.94
2017-06-14T09:15:41.647Z,30.36
2017-06-14T09:18:09.189Z,30.72
2017-06-14T09:20:36.750Z,29.77
2017-06-14T09:23:04.313Z,29.69
2017-06-14T09:25:31.850Z,29.61
2017-06-14T09:27:59.398Z,29.62
2017-06-14T09:30:26.984Z,30.18
2017-06-14T09:32:54.518Z,30.04
2017-06-14T09:35:22.054Z,29.58
2017-06-14T09:37:49.632Z,29.59
2017-06-14T09:40:17.161Z,29.32
2017-06-14T09:42:44.694Z,29.14
2017-06-14T09:45:12.268Z,29.94
2017-06-14T09:47:39.805Z,29.64
2017-06-14T09:50:07.334Z,29.73
2017-06-14T09:52:34.913Z,30.23
2017-06-14T09:55:02.449Z,30.09
2017-06-14T09:57:29.977Z,29.83
2017-06-14T09:59:57.537Z,30.47
2017-06-14T10:02:25.126Z,30.23
2017-06-14T10:04:52.652Z,30.23
2017-06-14T10:07:20.183Z,30.24
2017-06-14T10:09:47.758Z,30.65
2017-06-14T10:12:15.303Z,30.99
2017-06-14T10:14:42.834Z,31.30
2017-06-14T10:17:10.470Z,31.06
2017-06-14T10:19:38.237Z,31.20
2017-06-14T10:22:05.834Z,31.10
2017-06-14T10:24:33.404Z,31.38
2017-06-14T10:27:00.942Z,30.87
2017-06-14T10:29:28.492Z,31.02
2017-06-14T10:31:56.050Z,30.93
2017-06-14T10:34:23.585Z,31.03
2017-06-14T10:36:51.132Z,30.44
2017-06-14T10:39:18.696Z,30.17
2017-06-14T10:41:46.217Z,30.04
2017-06-14T10:44:13.749Z,29.80
2017-06-14T10:46:41.331Z,30.04
2017-06-14T10:49:08.865Z,30.15
2017-06-14T10:51:36.413Z,30.19
2017-06-14T10:54:04.000Z,30.05
2017-06-14T10:56:31.825Z,30.04
2017-06-14T10:59:02.244Z,30.19
2017-06-14T11:01:30.282Z,30.23
2017-06-14T11:03:57.830Z,30.40
2017-06-14T11:06:25.930Z,30.30
2017-06-14T11:08:53.493Z,30.34
2017-06-14T11:11:21.024Z,30.39
2017-06-14T11:13:48.553Z,30.48
2017-06-14T11:16:16.161Z,30.56
2017-06-14T11:18:43.695Z,30.77
2017-06-14T11:21:11.600Z,31.00
2017-06-14T11:23:39.164Z,31.05
2017-06-14T11:26:06.693Z,31.06
2017-06-14T11:28:34.237Z,31.12
2017-06-14T11:31:02.062Z,31.36
2017-06-14T11:33:29.618Z,31.48
2017-06-14T11:35:57.162Z,31.52
2017-06-14T11:38:24.761Z,31.37
2017-06-14T11:40:52.293Z,31.31
2017-06-14T11:43:19.829Z,31.23
2017-06-14T11:45:47.749Z,30.44
2017-06-14T11:48:15.310Z,30.67
2017-06-14T11:50:42.841Z,30.78
2017-06-14T11:53:10.410Z,31.03
2017-06-14T11:55:38.223Z,30.88
2017-06-14T11:58:05.814Z,31.21
2017-06-14T12:00:33.389Z,30.99
2017-06-14T12:03:00.922Z,31.13
2017-06-14T12:05:28.801Z,31.13
2017-06-14T12:07:56.370Z,31.14
2017-06-14T12:10:23.897Z,31.28
2017-06-14T12:12:52.306Z,31.32
2017-06-14T12:15:19.876Z,31.27
2017-06-14T12:17:47.405Z,31.14
2017-06-14T12:20:16.250Z,31.23
2017-06-14T12:22:44.355Z,31.40
2017-06-14T12:25:11.894Z,31.31
2017-06-14T12:27:39.419Z,31.38
2017-06-14T12:30:08.237Z,31.38
2017-06-14T12:32:36.042Z,31.37
2017-06-14T12:35:03.571Z,31.34
2017-06-14T12:37:31.174Z,31.26
2017-06-14T12:39:58.955Z,31.41
2017-06-14T12:42:26.530Z,31.11
2017-06-14T12:44:54.153Z,31.37
2017-06-14T12:47:21.808Z,31.32
2017-06-14T12:49:49.582Z,31.14
2017-06-14T12:52:17.216Z,30.89
2017-06-14T12:54:45.021Z,31.19
2017-06-14T12:57:12.634Z,30.89
2017-06-14T12:59:40.986Z,31.04
2017-06-14T13:02:08.561Z,31.18
2017-06-14T13:04:36.097Z,31.25
2017-06-14T13:07:03.934Z,31.02
2017-06-14T13:09:31.577Z,31.11
2017-06-14T13:11:59.126Z,31.04
2017-06-14T13:14:27.746Z,30.65
2017-06-14T13:16:57.011Z,30.16
2017-06-14T13:19:24.933Z,29.85
2017-06-14T13:21:52.533Z,29.49
2017-06-14T13:24:20.103Z,28.84
2017-06-14T13:26:48.062Z,29.00
2017-06-14T13:29:15.675Z,29.00
2017-06-14T13:31:43.577Z,28.72
2017-06-14T13:34:11.110Z,28.64
2017-06-14T13:36:38.872Z,28.70
2017-06-14T13:56:56.229Z,29.51
2017-06-14T13:59:24.353Z,29.37
2017-06-14T14:01:51.946Z,29.16
2017-06-14T14:04:22.313Z,29.24
2017-06-14T14:06:50.340Z,29.51
2017-06-14T14:09:18.537Z,28.90
2017-06-14T14:11:46.276Z,28.95
2017-06-14T14:14:14.125Z,29.52
2017-06-14T14:16:41.734Z,29.04
2017-06-14T14:19:09.279Z,29.04
2017-06-14T14:21:37.045Z,29.36
2017-06-14T14:24:04.641Z,29.21
2017-06-14T14:26:32.206Z,28.82
2017-06-14T14:28:59.744Z,29.04
2017-06-14T14:31:27.327Z,28.62
2017-06-14T14:33:54.862Z,28.19
2017-06-14T14:36:22.459Z,28.50
2017-06-14T14:38:50.030Z,28.35
2017-06-14T14:41:17.846Z,28.36
2017-06-14T14:43:45.406Z,28.64
2017-06-14T14:46:13.011Z,28.69
2017-06-14T14:48:40.887Z,28.43
2017-06-14T14:51:08.419Z,28.53
2017-06-14T14:53:36.024Z,28.30
2017-06-14T14:56:03.937Z,28.03
2017-06-14T14:58:31.465Z,27.80
2017-06-14T15:00:59.264Z,27.81
2017-06-14T15:03:27.077Z,27.70
2017-06-14T15:05:54.617Z,27.81
2017-06-14T15:08:22.178Z,27.77
2017-06-14T15:10:49.730Z,27.75
2017-06-14T15:13:17.302Z,28.01
2017-06-14T15:15:45.700Z,28.32
2017-06-14T15:18:13.258Z,28.34
2017-06-14T15:20:40.841Z,27.59
2017-06-14T15:23:08.952Z,27.55
2017-06-14T15:25:37.529Z,28.05
2017-06-14T15:28:05.426Z,27.85
2017-06-14T15:30:33.950Z,28.10
2017-06-14T15:33:01.876Z,28.36
2017-06-14T15:35:29.663Z,27.94
2017-06-14T15:37:57.308Z,27.96
2017-06-14T15:40:25.086Z,27.61
2017-06-14T15:42:52.877Z,27.88
2017-06-14T15:45:20.485Z,27.72
2017-06-14T15:47:49.006Z,27.70
2017-06-14T15:50:16.567Z,27.68
2017-06-14T15:52:44.169Z,27.76
2017-06-14T15:55:11.745Z,27.93
2017-06-14T15:57:39.327Z,28.06
2017-06-14T16:00:07.202Z,28.12
2017-06-14T16:02:35.005Z,27.96
2017-06-14T16:05:02.605Z,28.14
2017-06-14T16:07:30.420Z,27.95
2017-06-14T16:09:57.983Z,28.02
2017-06-14T16:12:25.579Z,27.69
2017-06-14T16:14:53.418Z,27.59
2017-06-14T16:17:21.212Z,27.50
2017-06-14T16:19:48.818Z,27.63
2017-06-14T16:22:16.413Z,27.61
2017-06-14T16:24:44.178Z,27.64
2017-06-14T16:27:11.798Z,27.39
2017-06-14T16:29:40.254Z,27.52
2017-06-14T16:32:08.942Z,27.52
2017-06-14T16:34:36.790Z,27.64
2017-06-14T16:37:04.405Z,27.81
2017-06-14T16:39:32.614Z,27.91
2017-06-14T16:42:00.194Z,27.78
2017-06-14T16:44:27.765Z,27.85
2017-06-14T16:46:55.373Z,27.73
2017-06-14T16:49:23.045Z,27.54
2017-06-14T16:51:51.181Z,27.72
2017-06-14T16:54:18.784Z,27.75
2017-06-14T16:56:46.390Z,27.59
2017-06-14T16:59:14.189Z,27.63
2017-06-14T17:01:41.787Z,27.38
2017-06-14T17:04:10.037Z,27.54
2017-06-14T17:06:55.891Z,27.66
2017-06-14T17:09:31.127Z,27.25
2017-06-14T17:11:59.918Z,27.27
2017-06-14T17:14:31.093Z,27.44
2017-06-14T17:16:58.922Z,27.06
2017-06-14T17:19:30.788Z,27.07
2017-06-14T17:29:19.658Z,27.14
2017-06-14T17:31:47.250Z,27.13
2017-06-14T17:34:14.850Z,26.96
2017-06-14T17:36:42.385Z,27.05
2017-06-14T17:39:10.053Z,27.04
2017-06-14T17:41:37.628Z,26.68
2017-06-14T17:44:05.173Z,26.83
2017-06-14T17:46:32.770Z,26.94
2017-06-14T17:49:00.302Z,27.07
2017-06-14T17:51:27.852Z,27.10
2017-06-14T17:53:55.592Z,27.00
2017-06-14T17:56:23.131Z,27.03
2017-06-14T17:58:51.298Z,26.69
2017-06-14T18:01:19.245Z,26.78
2017-06-14T18:03:47.122Z,26.62
2017-06-14T18:06:15.639Z,26.41
2017-06-14T18:08:43.922Z,26.74
2017-06-14T18:11:11.702Z,26.58
2017-06-14T18:13:40.261Z,26.44
2017-06-14T18:16:08.828Z,26.22
2017-06-14T18:18:36.521Z,26.32
2017-06-14T18:21:04.319Z,26.15
2017-06-14T18:23:32.057Z,26.14
2017-06-14T18:26:00.364Z,25.98
2017-06-14T18:28:29.190Z,26.23
2017-06-14T18:30:56.813Z,26.24
2017-06-14T18:33:24.442Z,26.29
2017-06-14T18:35:53.334Z,26.21
2017-06-14T18:38:22.074Z,26.49
2017-06-14T18:40:50.705Z,26.58
2017-06-14T18:43:18.385Z,26.39
2017-06-14T18:45:46.062Z,26.43
2017-06-14T18:48:13.730Z,26.27
2017-06-14T18:50:41.325Z,25.66
2017-06-14T18:53:09.552Z,25.71
2017-06-14T18:55:37.318Z,25.75
2017-06-14T18:58:19.236Z,25.83
2017-06-14T19:00:47.982Z,25.85
2017-06-14T19:03:15.772Z,25.63
2017-06-14T19:05:43.725Z,25.72
2017-06-14T19:08:11.380Z,25.35
2017-06-14T19:10:50.248Z,25.39
2017-06-14T19:13:26.038Z,25.23
2017-06-14T19:15:54.957Z,25.07
2017-06-14T19:18:22.849Z,25.19
2017-06-14T19:20:50.525Z,25.38
2017-06-14T19:23:18.274Z,25.07
2017-06-14T19:25:48.764Z,24.90
2017-06-14T19:28:16.545Z,25.00
2017-06-14T19:30:44.145Z,24.84
2017-06-14T19:33:11.721Z,24.66
2017-06-14T19:35:39.281Z,24.61
2017-06-14T19:38:06.854Z,24.74
2017-06-14T19:40:55.390Z,24.74
2017-06-14T19:43:34.397Z,24.90
2017-06-14T19:46:15.524Z,24.90
2017-06-14T19:48:43.295Z,24.73
2017-06-14T19:53:50.742Z,24.52
2017-06-14T19:56:18.277Z,24.51
2017-06-14T19:59:04.181Z,24.47
2017-06-14T20:01:34.202Z,24.33
2017-06-14T20:04:02.005Z,24.30
2017-06-14T20:06:29.546Z,24.20
2017-06-14T20:08:57.113Z,24.21
2017-06-14T20:11:38.338Z,24.15
2017-06-14T20:14:10.797Z,24.15
2017-06-14T20:16:39.418Z,24.10
2017-06-14T20:19:08.281Z,23.97
2017-06-14T20:21:56.389Z,23.89
2017-06-14T20:24:24.129Z,23.77
2017-06-14T20:27:01.591Z,23.74
2017-06-14T20:29:47.129Z,24.02
2017-06-14T20:32:15.512Z,23.75
2017-06-14T20:34:43.053Z,23.77
2017-06-14T20:37:10.588Z,23.71
2017-06-14T20:39:38.407Z,23.74
2017-06-14T20:42:06.196Z,23.73
2017-06-14T20:44:33.741Z,23.58
2017-06-14T20:47:01.325Z,23.65
2017-06-14T20:49:28.880Z,23.60
2017-06-14T20:51:56.701Z,23.24
2017-06-14T20:54:24.264Z,23.30
2017-06-14T20:56:51.805Z,23.34
2017-06-14T20:59:19.342Z,23.28
2017-06-14T21:01:46.950Z,23.33
2017-06-14T21:04:14.494Z,23.11
2017-06-14T21:06:42.122Z,23.12
2017-06-14T21:09:10.890Z,23.04
2017-06-14T21:11:38.446Z,22.87
2017-06-14T21:14:07.173Z,22.94
2017-06-14T21:16:35.476Z,22.82
2017-06-14T21:19:03.012Z,22.82
2017-06-14T21:21:30.544Z,23.04
2017-06-14T21:23:58.144Z,22.94
2017-06-14T21:26:25.766Z,22.81
2017-06-14T21:28:53.313Z,22.73
2017-06-14T21:31:20.883Z,22.53
2017-06-14T21:33:48.446Z,22.45
2017-06-14T21:36:16.021Z,22.49
2017-06-14T21:38:43.589Z,22.61
2017-06-14T21:41:11.197Z,22.67
2017-06-14T21:43:38.770Z,22.54
2017-06-14T21:46:06.337Z,22.65
2017-06-14T21:48:33.894Z,22.49
2017-06-14T21:51:01.487Z,22.58
2017-06-14T21:53:29.115Z,22.67
2017-06-14T21:55:56.752Z,22.66
2017-06-14T21:58:24.427Z,22.66
2017-06-14T22:00:52.109Z,22.62
2017-06-14T22:03:19.677Z,22.48
2017-06-14T22:05:47.261Z,22.43
2017-06-14T22:08:14.955Z,22.51
2017-06-14T22:10:42.560Z,22.62
2017-06-14T22:13:10.138Z,22.31
2017-06-14T22:15:38.002Z,22.30
2017-06-14T22:18:05.623Z,22.26
2017-06-14T22:20:33.192Z,22.24
2017-06-14T22:23:00.872Z,22.33
2017-06-14T22:25:28.412Z,22.13
2017-06-14T22:27:55.950Z,22.49
2017-06-14T22:30:23.683Z,22.46
2017-06-14T22:32:51.243Z,22.25
2017-06-14T22:35:18.778Z,22.14
2017-06-14T22:37:46.376Z,22.36
2017-06-14T22:40:14.026Z,22.13
2017-06-14T22:42:41.656Z,22.20
2017-06-14T22:45:09.371Z,22.23
2017-06-14T22:47:37.013Z,21.97
2017-06-14T22:50:04.542Z,22.16
2017-06-14T22:52:32.113Z,22.17
2017-06-14T22:54:59.658Z,22.27
2017-06-14T22:57:27.196Z,22.43
2017-06-14T22:59:54.762Z,22.49
2017-06-14T23:02:22.352Z,22.14
2017-06-14T23:04:49.894Z,22.09
2017-06-14T23:07:17.461Z,22.07
2017-06-14T23:09:45.902Z,22.18
2017-06-14T23:12:13.476Z,22.08
2017-06-14T23:14:41.030Z,22.01
2017-06-14T23:17:08.594Z,22.01
2017-06-14T23:19:36.127Z,22.14
2017-06-14T23:22:03.681Z,22.21
2017-06-14T23:24:31.250Z,22.39
2017-06-14T23:26:58.793Z,22.39
2017-06-14T23:29:26.329Z,22.54
2017-06-14T23:31:53.896Z,22.43
2017-06-14T23:34:21.421Z,22.16
2017-06-14T23:36:48.958Z,22.37
2017-06-14T23:39:16.527Z,22.39
2017-06-14T23:41:44.061Z,22.43
2017-06-14T23:44:11.610Z,22.33
2017-06-14T23:46:39.252Z,22.21
2017-06-14T23:49:07.644Z,21.96
2017-06-14T23:51:35.231Z,22.00
2017-06-14T23:54:02.804Z,21.97
2017-06-14T23:56:30.346Z,22.06
2017-06-14T23:58:57.881Z,22.08
